« Back
NWS Peachtree City, Ga » Text Product » AHN Terminal Aerodrome Forecast


Printer-friendly Version
Current Version              Previous Versions:   1  2  3  4  5  6  7  8  9  

Terminal Aerodrome Forecast

221
FTAK31 PAJN 261134
TAFAHN
TAF
PAHN 261134Z 2612/2712 10009KT P6SM -RA OVC015
     FM261700 11010G16KT 6SM -RA BR OVC015
     FM270400 10006KT P6SM SCT020 OVC035
     FM271000 10004KT P6SM BKN012 OVC020
      AMD LTD TO CLD VIS AND WIND=

USA.gov is the U.S. government's official web portal to all federal, state and local government web resources and services.